sensor_id;sensor_type;location;lat;lon;timestamp;P1;durP1;ratioP1;P2;durP2;ratioP2
71038;SDS011;58692;43.212;27.908;2022-12-29T00:00:53;38.03;;;20.17;;
71038;SDS011;58692;43.212;27.908;2022-12-29T00:03:19;41.42;;;22.73;;
71038;SDS011;58692;43.212;27.908;2022-12-29T00:05:44;42.10;;;21.90;;
71038;SDS011;58692;43.212;27.908;2022-12-29T00:08:10;41.97;;;21.57;;
71038;SDS011;58692;43.212;27.908;2022-12-29T00:10:36;39.85;;;22.05;;
71038;SDS011;58692;43.212;27.908;2022-12-29T00:13:01;39.37;;;20.47;;
71038;SDS011;58692;43.212;27.908;2022-12-29T00:15:42;40.63;;;20.38;;
71038;SDS011;58692;43.212;27.908;2022-12-29T00:18:07;37.60;;;19.63;;
71038;SDS011;58692;43.212;27.908;2022-12-29T00:20:34;42.75;;;21.50;;
71038;SDS011;58692;43.212;27.908;2022-12-29T00:23:16;41.22;;;20.63;;
71038;SDS011;58692;43.212;27.908;2022-12-29T00:25:57;42.15;;;19.90;;
71038;SDS011;58692;43.212;27.908;2022-12-29T00:28:37;42.33;;;20.20;;
71038;SDS011;58692;43.212;27.908;2022-12-29T00:31:18;41.60;;;19.48;;
71038;SDS011;58692;43.212;27.908;2022-12-29T00:33:59;40.00;;;20.02;;
71038;SDS011;58692;43.212;27.908;2022-12-29T00:36:40;48.80;;;25.65;;
71038;SDS011;58692;43.212;27.908;2022-12-29T00:39:10;49.67;;;27.45;;
71038;SDS011;58692;43.212;27.908;2022-12-29T00:41:53;54.37;;;28.63;;
71038;SDS011;58692;43.212;27.908;2022-12-29T00:44:34;61.15;;;31.17;;
71038;SDS011;58692;43.212;27.908;2022-12-29T00:46:59;68.67;;;34.13;;
71038;SDS011;58692;43.212;27.908;2022-12-29T00:49:28;72.93;;;36.53;;
71038;SDS011;58692;43.212;27.908;2022-12-29T00:51:55;81.55;;;43.72;;
71038;SDS011;58692;43.212;27.908;2022-12-29T00:54:23;82.47;;;44.28;;
71038;SDS011;58692;43.212;27.908;2022-12-29T00:56:49;81.53;;;44.37;;
71038;SDS011;58692;43.212;27.908;2022-12-29T00:59:15;107.15;;;54.75;;
71038;SDS011;58692;43.212;27.908;2022-12-29T01:01:41;107.97;;;59.03;;
71038;SDS011;58692;43.212;27.908;2022-12-29T01:04:07;125.23;;;64.53;;
71038;SDS011;58692;43.212;27.908;2022-12-29T01:06:33;115.45;;;62.83;;
71038;SDS011;58692;43.212;27.908;2022-12-29T01:09:00;95.63;;;48.72;;
71038;SDS011;58692;43.212;27.908;2022-12-29T01:11:41;70.15;;;35.22;;
71038;SDS011;58692;43.212;27.908;2022-12-29T01:14:06;52.20;;;26.50;;
71038;SDS011;58692;43.212;27.908;2022-12-29T01:16:32;44.08;;;21.60;;
71038;SDS011;58692;43.212;27.908;2022-12-29T01:18:58;44.33;;;22.87;;
71038;SDS011;58692;43.212;27.908;2022-12-29T01:21:24;38.70;;;21.00;;
71038;SDS011;58692;43.212;27.908;2022-12-29T01:23:50;40.63;;;18.65;;
71038;SDS011;58692;43.212;27.908;2022-12-29T01:26:16;31.50;;;16.80;;
71038;SDS011;58692;43.212;27.908;2022-12-29T01:28:43;38.13;;;16.80;;
71038;SDS011;58692;43.212;27.908;2022-12-29T01:31:09;37.00;;;17.35;;
71038;SDS011;58692;43.212;27.908;2022-12-29T01:33:36;42.38;;;21.23;;
71038;SDS011;58692;43.212;27.908;2022-12-29T01:36:02;41.23;;;20.30;;
71038;SDS011;58692;43.212;27.908;2022-12-29T01:38:29;38.70;;;21.52;;
71038;SDS011;58692;43.212;27.908;2022-12-29T01:40:55;39.53;;;19.67;;
71038;SDS011;58692;43.212;27.908;2022-12-29T01:43:20;32.67;;;18.00;;
71038;SDS011;58692;43.212;27.908;2022-12-29T01:45:48;37.10;;;17.73;;
71038;SDS011;58692;43.212;27.908;2022-12-29T01:48:16;35.05;;;16.80;;
71038;SDS011;58692;43.212;27.908;2022-12-29T01:50:45;33.70;;;16.77;;
71038;SDS011;58692;43.212;27.908;2022-12-29T01:55:46;35.27;;;17.17;;
71038;SDS011;58692;43.212;27.908;2022-12-29T01:58:15;31.50;;;15.57;;
71038;SDS011;58692;43.212;27.908;2022-12-29T02:00:44;36.47;;;16.48;;
71038;SDS011;58692;43.212;27.908;2022-12-29T02:03:10;37.70;;;16.77;;
71038;SDS011;58692;43.212;27.908;2022-12-29T02:05:39;33.00;;;16.35;;
71038;SDS011;58692;43.212;27.908;2022-12-29T02:08:11;32.57;;;16.20;;
71038;SDS011;58692;43.212;27.908;2022-12-29T02:10:37;37.30;;;15.85;;
71038;SDS011;58692;43.212;27.908;2022-12-29T02:13:05;33.35;;;16.15;;
71038;SDS011;58692;43.212;27.908;2022-12-29T02:31:46;32.13;;;13.50;;
71038;SDS011;58692;43.212;27.908;2022-12-29T02:34:22;32.93;;;13.97;;
71038;SDS011;58692;43.212;27.908;2022-12-29T02:39:32;29.55;;;13.75;;
71038;SDS011;58692;43.212;27.908;2022-12-29T02:44:38;27.27;;;12.35;;
71038;SDS011;58692;43.212;27.908;2022-12-29T02:47:22;31.87;;;13.97;;
71038;SDS011;58692;43.212;27.908;2022-12-29T02:49:50;29.55;;;14.52;;
71038;SDS011;58692;43.212;27.908;2022-12-29T02:52:36;31.05;;;14.70;;
71038;SDS011;58692;43.212;27.908;2022-12-29T02:55:08;35.05;;;16.13;;
71038;SDS011;58692;43.212;27.908;2022-12-29T02:57:36;33.80;;;17.45;;
71038;SDS011;58692;43.212;27.908;2022-12-29T03:08:18;37.90;;;18.80;;
71038;SDS011;58692;43.212;27.908;2022-12-29T03:13:52;31.73;;;15.97;;
71038;SDS011;58692;43.212;27.908;2022-12-29T03:16:44;34.85;;;16.75;;
71038;SDS011;58692;43.212;27.908;2022-12-29T03:19:28;36.83;;;18.35;;
71038;SDS011;58692;43.212;27.908;2022-12-29T03:21:58;34.92;;;15.93;;
71038;SDS011;58692;43.212;27.908;2022-12-29T03:24:44;33.75;;;16.15;;
71038;SDS011;58692;43.212;27.908;2022-12-29T03:27:14;35.07;;;18.03;;
71038;SDS011;58692;43.212;27.908;2022-12-29T03:29:47;43.08;;;21.15;;
71038;SDS011;58692;43.212;27.908;2022-12-29T03:32:18;44.90;;;21.25;;
71038;SDS011;58692;43.212;27.908;2022-12-29T03:34:45;41.55;;;21.52;;
71038;SDS011;58692;43.212;27.908;2022-12-29T03:37:14;46.08;;;24.63;;
71038;SDS011;58692;43.212;27.908;2022-12-29T03:39:43;41.97;;;21.93;;
71038;SDS011;58692;43.212;27.908;2022-12-29T03:42:10;35.00;;;18.65;;
71038;SDS011;58692;43.212;27.908;2022-12-29T03:44:41;38.58;;;18.40;;
71038;SDS011;58692;43.212;27.908;2022-12-29T03:47:07;35.10;;;16.48;;
71038;SDS011;58692;43.212;27.908;2022-12-29T03:49:36;27.63;;;15.83;;
71038;SDS011;58692;43.212;27.908;2022-12-29T03:52:02;30.75;;;14.93;;
71038;SDS011;58692;43.212;27.908;2022-12-29T03:54:28;29.40;;;15.55;;
71038;SDS011;58692;43.212;27.908;2022-12-29T03:56:54;26.98;;;13.98;;
71038;SDS011;58692;43.212;27.908;2022-12-29T03:59:20;25.53;;;12.57;;
71038;SDS011;58692;43.212;27.908;2022-12-29T04:01:45;25.03;;;13.10;;
71038;SDS011;58692;43.212;27.908;2022-12-29T04:04:11;24.15;;;11.88;;
71038;SDS011;58692;43.212;27.908;2022-12-29T04:06:36;21.60;;;11.87;;
71038;SDS011;58692;43.212;27.908;2022-12-29T04:09:02;24.90;;;11.97;;
71038;SDS011;58692;43.212;27.908;2022-12-29T04:11:28;24.67;;;11.40;;
71038;SDS011;58692;43.212;27.908;2022-12-29T04:13:53;25.90;;;11.93;;
71038;SDS011;58692;43.212;27.908;2022-12-29T04:16:19;23.80;;;11.20;;
71038;SDS011;58692;43.212;27.908;2022-12-29T04:18:44;26.13;;;11.40;;
71038;SDS011;58692;43.212;27.908;2022-12-29T04:21:10;25.30;;;11.17;;
71038;SDS011;58692;43.212;27.908;2022-12-29T04:23:36;21.10;;;10.80;;
71038;SDS011;58692;43.212;27.908;2022-12-29T04:26:04;23.50;;;11.03;;
71038;SDS011;58692;43.212;27.908;2022-12-29T04:28:34;29.05;;;10.95;;
71038;SDS011;58692;43.212;27.908;2022-12-29T04:31:00;24.42;;;11.40;;
71038;SDS011;58692;43.212;27.908;2022-12-29T04:33:26;24.20;;;11.63;;
71038;SDS011;58692;43.212;27.908;2022-12-29T04:35:51;25.47;;;12.60;;
71038;SDS011;58692;43.212;27.908;2022-12-29T04:38:19;30.25;;;14.07;;
71038;SDS011;58692;43.212;27.908;2022-12-29T04:40:45;25.80;;;13.52;;
71038;SDS011;58692;43.212;27.908;2022-12-29T04:43:11;28.03;;;13.03;;
71038;SDS011;58692;43.212;27.908;2022-12-29T04:45:38;28.88;;;12.18;;
71038;SDS011;58692;43.212;27.908;2022-12-29T04:48:07;22.92;;;11.75;;
71038;SDS011;58692;43.212;27.908;2022-12-29T04:50:33;25.27;;;12.83;;
71038;SDS011;58692;43.212;27.908;2022-12-29T04:52:58;27.83;;;12.23;;
71038;SDS011;58692;43.212;27.908;2022-12-29T04:55:24;27.30;;;12.90;;
71038;SDS011;58692;43.212;27.908;2022-12-29T04:57:49;25.90;;;12.73;;
71038;SDS011;58692;43.212;27.908;2022-12-29T05:00:15;27.93;;;13.03;;
71038;SDS011;58692;43.212;27.908;2022-12-29T05:02:40;25.73;;;13.25;;
71038;SDS011;58692;43.212;27.908;2022-12-29T05:05:06;27.70;;;12.57;;
71038;SDS011;58692;43.212;27.908;2022-12-29T05:07:31;24.20;;;13.43;;
71038;SDS011;58692;43.212;27.908;2022-12-29T05:09:58;25.57;;;12.90;;
71038;SDS011;58692;43.212;27.908;2022-12-29T05:12:24;27.67;;;13.00;;
71038;SDS011;58692;43.212;27.908;2022-12-29T05:14:50;27.20;;;14.82;;
71038;SDS011;58692;43.212;27.908;2022-12-29T05:20:26;25.35;;;13.05;;
71038;SDS011;58692;43.212;27.908;2022-12-29T05:22:52;27.33;;;13.67;;
71038;SDS011;58692;43.212;27.908;2022-12-29T05:25:18;33.20;;;14.98;;
71038;SDS011;58692;43.212;27.908;2022-12-29T05:27:43;30.43;;;14.57;;
71038;SDS011;58692;43.212;27.908;2022-12-29T05:30:09;33.00;;;16.13;;
71038;SDS011;58692;43.212;27.908;2022-12-29T05:32:35;28.83;;;15.65;;
71038;SDS011;58692;43.212;27.908;2022-12-29T05:35:00;37.83;;;16.20;;
71038;SDS011;58692;43.212;27.908;2022-12-29T05:37:26;30.85;;;15.55;;
71038;SDS011;58692;43.212;27.908;2022-12-29T05:39:51;30.47;;;15.43;;
71038;SDS011;58692;43.212;27.908;2022-12-29T05:42:17;29.17;;;14.73;;
71038;SDS011;58692;43.212;27.908;2022-12-29T05:44:42;30.30;;;16.15;;
71038;SDS011;58692;43.212;27.908;2022-12-29T05:47:08;32.97;;;16.63;;
71038;SDS011;58692;43.212;27.908;2022-12-29T05:49:33;34.13;;;15.87;;
71038;SDS011;58692;43.212;27.908;2022-12-29T05:55:10;31.07;;;15.33;;
71038;SDS011;58692;43.212;27.908;2022-12-29T05:57:36;34.97;;;15.57;;
71038;SDS011;58692;43.212;27.908;2022-12-29T06:00:03;27.43;;;15.67;;
71038;SDS011;58692;43.212;27.908;2022-12-29T06:02:29;31.30;;;16.47;;
71038;SDS011;58692;43.212;27.908;2022-12-29T06:04:54;32.63;;;16.77;;
71038;SDS011;58692;43.212;27.908;2022-12-29T06:07:20;36.27;;;18.00;;
71038;SDS011;58692;43.212;27.908;2022-12-29T06:09:45;36.53;;;18.57;;
71038;SDS011;58692;43.212;27.908;2022-12-29T06:12:11;52.63;;;25.23;;
71038;SDS011;58692;43.212;27.908;2022-12-29T06:14:36;61.07;;;31.83;;
71038;SDS011;58692;43.212;27.908;2022-12-29T06:17:02;61.83;;;34.77;;
71038;SDS011;58692;43.212;27.908;2022-12-29T06:19:28;65.07;;;34.67;;
71038;SDS011;58692;43.212;27.908;2022-12-29T06:21:53;66.67;;;36.50;;
71038;SDS011;58692;43.212;27.908;2022-12-29T06:24:20;64.93;;;36.47;;
71038;SDS011;58692;43.212;27.908;2022-12-29T06:26:46;64.63;;;33.75;;
71038;SDS011;58692;43.212;27.908;2022-12-29T06:29:11;70.43;;;35.00;;
71038;SDS011;58692;43.212;27.908;2022-12-29T06:31:41;62.22;;;34.25;;
71038;SDS011;58692;43.212;27.908;2022-12-29T06:34:08;66.28;;;33.13;;
71038;SDS011;58692;43.212;27.908;2022-12-29T06:36:34;63.93;;;33.17;;
71038;SDS011;58692;43.212;27.908;2022-12-29T06:38:59;67.32;;;33.33;;
71038;SDS011;58692;43.212;27.908;2022-12-29T06:41:25;71.73;;;33.97;;
71038;SDS011;58692;43.212;27.908;2022-12-29T06:43:50;61.37;;;31.47;;
71038;SDS011;58692;43.212;27.908;2022-12-29T06:46:16;60.83;;;31.35;;
71038;SDS011;58692;43.212;27.908;2022-12-29T06:48:41;59.13;;;30.03;;
71038;SDS011;58692;43.212;27.908;2022-12-29T06:51:07;53.80;;;29.87;;
71038;SDS011;58692;43.212;27.908;2022-12-29T06:53:33;56.75;;;30.27;;
71038;SDS011;58692;43.212;27.908;2022-12-29T06:55:58;55.93;;;29.90;;
71038;SDS011;58692;43.212;27.908;2022-12-29T06:58:24;64.57;;;29.63;;
71038;SDS011;58692;43.212;27.908;2022-12-29T07:00:49;47.37;;;23.53;;
71038;SDS011;58692;43.212;27.908;2022-12-29T07:03:15;50.60;;;25.93;;
71038;SDS011;58692;43.212;27.908;2022-12-29T07:05:40;62.78;;;27.67;;
71038;SDS011;58692;43.212;27.908;2022-12-29T07:08:06;54.53;;;26.43;;
71038;SDS011;58692;43.212;27.908;2022-12-29T07:10:31;47.87;;;23.63;;
71038;SDS011;58692;43.212;27.908;2022-12-29T07:12:57;45.00;;;23.00;;
71038;SDS011;58692;43.212;27.908;2022-12-29T07:15:22;49.38;;;24.17;;
71038;SDS011;58692;43.212;27.908;2022-12-29T07:17:48;40.23;;;21.37;;
71038;SDS011;58692;43.212;27.908;2022-12-29T07:20:15;29.02;;;13.35;;
71038;SDS011;58692;43.212;27.908;2022-12-29T07:22:40;50.10;;;22.63;;
71038;SDS011;58692;43.212;27.908;2022-12-29T07:25:06;35.33;;;15.97;;
71038;SDS011;58692;43.212;27.908;2022-12-29T07:27:32;36.28;;;15.88;;
71038;SDS011;58692;43.212;27.908;2022-12-29T07:29:58;30.88;;;13.20;;
71038;SDS011;58692;43.212;27.908;2022-12-29T07:32:23;30.00;;;11.90;;
71038;SDS011;58692;43.212;27.908;2022-12-29T07:34:49;22.50;;;11.77;;
71038;SDS011;58692;43.212;27.908;2022-12-29T07:37:15;30.10;;;14.27;;
71038;SDS011;58692;43.212;27.908;2022-12-29T07:39:40;31.50;;;13.47;;
71038;SDS011;58692;43.212;27.908;2022-12-29T07:42:06;22.33;;;10.63;;
71038;SDS011;58692;43.212;27.908;2022-12-29T07:44:32;25.50;;;10.90;;
71038;SDS011;58692;43.212;27.908;2022-12-29T07:46:57;35.42;;;18.05;;
71038;SDS011;58692;43.212;27.908;2022-12-29T07:49:23;86.00;;;43.77;;
71038;SDS011;58692;43.212;27.908;2022-12-29T07:51:48;93.97;;;51.63;;
71038;SDS011;58692;43.212;27.908;2022-12-29T07:54:14;129.63;;;68.07;;
71038;SDS011;58692;43.212;27.908;2022-12-29T07:56:43;125.87;;;69.07;;
71038;SDS011;58692;43.212;27.908;2022-12-29T07:59:09;123.47;;;68.07;;
71038;SDS011;58692;43.212;27.908;2022-12-29T08:01:34;121.38;;;67.88;;
71038;SDS011;58692;43.212;27.908;2022-12-29T08:03:59;123.63;;;65.23;;
71038;SDS011;58692;43.212;27.908;2022-12-29T08:06:25;123.30;;;66.00;;
71038;SDS011;58692;43.212;27.908;2022-12-29T08:08:50;118.20;;;63.60;;
71038;SDS011;58692;43.212;27.908;2022-12-29T08:11:16;102.43;;;59.85;;
71038;SDS011;58692;43.212;27.908;2022-12-29T08:13:42;100.97;;;57.03;;
71038;SDS011;58692;43.212;27.908;2022-12-29T08:16:07;100.80;;;52.67;;
71038;SDS011;58692;43.212;27.908;2022-12-29T08:18:33;78.23;;;46.97;;
71038;SDS011;58692;43.212;27.908;2022-12-29T08:21:05;70.27;;;40.83;;
71038;SDS011;58692;43.212;27.908;2022-12-29T08:23:31;52.30;;;30.05;;
71038;SDS011;58692;43.212;27.908;2022-12-29T08:25:58;55.05;;;29.67;;
71038;SDS011;58692;43.212;27.908;2022-12-29T08:28:25;47.83;;;25.15;;
71038;SDS011;58692;43.212;27.908;2022-12-29T08:30:51;41.67;;;22.67;;
71038;SDS011;58692;43.212;27.908;2022-12-29T08:33:16;48.00;;;25.70;;
71038;SDS011;58692;43.212;27.908;2022-12-29T08:35:42;45.77;;;25.47;;
71038;SDS011;58692;43.212;27.908;2022-12-29T08:38:08;41.85;;;22.42;;
71038;SDS011;58692;43.212;27.908;2022-12-29T08:40:33;33.43;;;17.60;;
71038;SDS011;58692;43.212;27.908;2022-12-29T08:42:59;32.42;;;18.33;;
71038;SDS011;58692;43.212;27.908;2022-12-29T08:45:24;29.87;;;16.07;;
71038;SDS011;58692;43.212;27.908;2022-12-29T08:47:50;30.17;;;16.20;;
71038;SDS011;58692;43.212;27.908;2022-12-29T08:50:15;22.95;;;12.27;;
71038;SDS011;58692;43.212;27.908;2022-12-29T08:52:41;23.73;;;12.37;;
71038;SDS011;58692;43.212;27.908;2022-12-29T08:55:06;19.63;;;10.10;;
71038;SDS011;58692;43.212;27.908;2022-12-29T08:57:32;22.88;;;12.10;;
71038;SDS011;58692;43.212;27.908;2022-12-29T08:59:57;19.20;;;9.73;;
71038;SDS011;58692;43.212;27.908;2022-12-29T09:02:23;20.33;;;11.63;;
71038;SDS011;58692;43.212;27.908;2022-12-29T09:04:48;22.10;;;11.80;;
71038;SDS011;58692;43.212;27.908;2022-12-29T09:07:14;20.97;;;11.43;;
71038;SDS011;58692;43.212;27.908;2022-12-29T09:09:39;23.37;;;12.60;;
71038;SDS011;58692;43.212;27.908;2022-12-29T09:12:05;21.42;;;11.15;;
71038;SDS011;58692;43.212;27.908;2022-12-29T09:14:31;24.10;;;11.57;;
71038;SDS011;58692;43.212;27.908;2022-12-29T09:16:56;25.83;;;12.27;;
71038;SDS011;58692;43.212;27.908;2022-12-29T09:19:37;28.67;;;14.85;;
71038;SDS011;58692;43.212;27.908;2022-12-29T09:22:03;28.20;;;12.17;;
71038;SDS011;58692;43.212;27.908;2022-12-29T09:24:28;26.02;;;11.20;;
71038;SDS011;58692;43.212;27.908;2022-12-29T09:26:54;23.93;;;11.53;;
71038;SDS011;58692;43.212;27.908;2022-12-29T09:29:19;19.80;;;10.57;;
71038;SDS011;58692;43.212;27.908;2022-12-29T09:31:45;15.95;;;8.00;;
71038;SDS011;58692;43.212;27.908;2022-12-29T09:34:11;24.60;;;9.63;;
71038;SDS011;58692;43.212;27.908;2022-12-29T09:36:36;16.48;;;7.93;;
71038;SDS011;58692;43.212;27.908;2022-12-29T09:39:01;17.83;;;8.70;;
71038;SDS011;58692;43.212;27.908;2022-12-29T09:41:29;19.60;;;9.30;;
71038;SDS011;58692;43.212;27.908;2022-12-29T09:46:38;16.42;;;7.03;;
71038;SDS011;58692;43.212;27.908;2022-12-29T09:51:55;11.65;;;5.45;;
71038;SDS011;58692;43.212;27.908;2022-12-29T10:00:01;13.90;;;5.93;;
71038;SDS011;58692;43.212;27.908;2022-12-29T10:08:11;11.43;;;6.23;;
71038;SDS011;58692;43.212;27.908;2022-12-29T10:16:18;13.70;;;6.32;;
71038;SDS011;58692;43.212;27.908;2022-12-29T10:18:55;10.98;;;5.18;;
71038;SDS011;58692;43.212;27.908;2022-12-29T10:24:21;17.77;;;8.15;;
71038;SDS011;58692;43.212;27.908;2022-12-29T10:26:47;13.07;;;6.95;;
71038;SDS011;58692;43.212;27.908;2022-12-29T10:29:20;13.30;;;6.97;;
71038;SDS011;58692;43.212;27.908;2022-12-29T10:31:58;12.30;;;6.78;;
71038;SDS011;58692;43.212;27.908;2022-12-29T10:34:27;12.10;;;6.70;;
71038;SDS011;58692;43.212;27.908;2022-12-29T10:36:55;11.85;;;6.70;;
71038;SDS011;58692;43.212;27.908;2022-12-29T10:39:28;13.50;;;6.68;;
71038;SDS011;58692;43.212;27.908;2022-12-29T10:42:02;15.60;;;7.70;;
71038;SDS011;58692;43.212;27.908;2022-12-29T10:44:34;15.52;;;7.22;;
71038;SDS011;58692;43.212;27.908;2022-12-29T10:47:04;10.97;;;6.87;;
71038;SDS011;58692;43.212;27.908;2022-12-29T10:49:32;11.57;;;6.55;;
71038;SDS011;58692;43.212;27.908;2022-12-29T10:52:06;13.05;;;7.20;;
71038;SDS011;58692;43.212;27.908;2022-12-29T10:54:35;14.57;;;6.70;;
71038;SDS011;58692;43.212;27.908;2022-12-29T10:57:15;13.90;;;7.40;;
71038;SDS011;58692;43.212;27.908;2022-12-29T10:59:44;14.35;;;7.30;;
71038;SDS011;58692;43.212;27.908;2022-12-29T11:07:16;15.02;;;8.85;;
71038;SDS011;58692;43.212;27.908;2022-12-29T11:09:43;15.57;;;8.53;;
71038;SDS011;58692;43.212;27.908;2022-12-29T11:23:00;12.87;;;6.67;;
71038;SDS011;58692;43.212;27.908;2022-12-29T11:25:27;15.32;;;6.68;;
71038;SDS011;58692;43.212;27.908;2022-12-29T11:27:55;11.43;;;6.27;;
71038;SDS011;58692;43.212;27.908;2022-12-29T11:30:22;11.93;;;6.57;;
71038;SDS011;58692;43.212;27.908;2022-12-29T11:32:50;11.95;;;6.38;;
71038;SDS011;58692;43.212;27.908;2022-12-29T11:38:00;10.95;;;5.63;;
71038;SDS011;58692;43.212;27.908;2022-12-29T11:40:27;10.67;;;6.10;;
71038;SDS011;58692;43.212;27.908;2022-12-29T11:42:54;14.85;;;6.32;;
71038;SDS011;58692;43.212;27.908;2022-12-29T11:47:49;12.35;;;5.95;;
71038;SDS011;58692;43.212;27.908;2022-12-29T11:50:19;10.82;;;6.60;;
71038;SDS011;58692;43.212;27.908;2022-12-29T11:52:46;12.60;;;6.20;;
71038;SDS011;58692;43.212;27.908;2022-12-29T11:55:17;10.65;;;5.47;;
71038;SDS011;58692;43.212;27.908;2022-12-29T11:57:46;10.68;;;5.93;;
71038;SDS011;58692;43.212;27.908;2022-12-29T12:00:14;13.77;;;5.53;;
71038;SDS011;58692;43.212;27.908;2022-12-29T12:11:26;11.05;;;5.72;;
71038;SDS011;58692;43.212;27.908;2022-12-29T12:14:02;12.32;;;5.70;;
71038;SDS011;58692;43.212;27.908;2022-12-29T12:16:33;15.55;;;6.97;;
71038;SDS011;58692;43.212;27.908;2022-12-29T12:22:00;13.65;;;6.10;;
71038;SDS011;58692;43.212;27.908;2022-12-29T12:29:58;14.13;;;6.03;;
71038;SDS011;58692;43.212;27.908;2022-12-29T12:32:36;12.35;;;5.97;;
71038;SDS011;58692;43.212;27.908;2022-12-29T12:38:11;12.00;;;6.10;;
71038;SDS011;58692;43.212;27.908;2022-12-29T12:43:52;13.27;;;6.32;;
71038;SDS011;58692;43.212;27.908;2022-12-29T12:54:56;11.13;;;5.43;;
71038;SDS011;58692;43.212;27.908;2022-12-29T12:57:47;12.30;;;5.30;;
71038;SDS011;58692;43.212;27.908;2022-12-29T13:00:33;12.95;;;5.07;;
71038;SDS011;58692;43.212;27.908;2022-12-29T13:08:39;14.48;;;5.63;;
71038;SDS011;58692;43.212;27.908;2022-12-29T13:17:08;14.85;;;5.95;;
71038;SDS011;58692;43.212;27.908;2022-12-29T13:20:10;13.27;;;5.00;;
71038;SDS011;58692;43.212;27.908;2022-12-29T13:22:44;12.07;;;5.75;;
71038;SDS011;58692;43.212;27.908;2022-12-29T13:25:43;15.40;;;6.20;;
71038;SDS011;58692;43.212;27.908;2022-12-29T13:31:12;14.35;;;5.85;;
71038;SDS011;58692;43.212;27.908;2022-12-29T13:33:47;11.73;;;5.70;;
71038;SDS011;58692;43.212;27.908;2022-12-29T13:36:27;11.25;;;5.90;;
71038;SDS011;58692;43.212;27.908;2022-12-29T13:44:21;15.00;;;6.32;;
71038;SDS011;58692;43.212;27.908;2022-12-29T13:46:48;12.30;;;6.60;;
71038;SDS011;58692;43.212;27.908;2022-12-29T13:51:48;13.63;;;6.90;;
71038;SDS011;58692;43.212;27.908;2022-12-29T13:57:15;15.55;;;7.13;;
71038;SDS011;58692;43.212;27.908;2022-12-29T14:00:11;16.37;;;7.27;;
71038;SDS011;58692;43.212;27.908;2022-12-29T14:03:00;13.35;;;6.47;;
71038;SDS011;58692;43.212;27.908;2022-12-29T14:05:27;13.50;;;6.97;;
71038;SDS011;58692;43.212;27.908;2022-12-29T14:07:58;18.23;;;6.85;;
71038;SDS011;58692;43.212;27.908;2022-12-29T14:10:31;17.38;;;7.63;;
71038;SDS011;58692;43.212;27.908;2022-12-29T14:13:02;18.43;;;8.00;;
71038;SDS011;58692;43.212;27.908;2022-12-29T14:15:39;18.48;;;9.48;;
71038;SDS011;58692;43.212;27.908;2022-12-29T14:18:15;18.02;;;10.18;;
71038;SDS011;58692;43.212;27.908;2022-12-29T14:20:50;20.52;;;8.90;;
71038;SDS011;58692;43.212;27.908;2022-12-29T14:25:53;30.23;;;14.10;;
71038;SDS011;58692;43.212;27.908;2022-12-29T14:28:39;22.33;;;10.00;;
71038;SDS011;58692;43.212;27.908;2022-12-29T14:33:39;18.63;;;8.70;;
71038;SDS011;58692;43.212;27.908;2022-12-29T14:38:50;20.77;;;8.10;;
71038;SDS011;58692;43.212;27.908;2022-12-29T14:46:57;17.65;;;8.73;;
71038;SDS011;58692;43.212;27.908;2022-12-29T14:49:27;17.80;;;8.23;;
71038;SDS011;58692;43.212;27.908;2022-12-29T14:54:44;17.15;;;9.13;;
71038;SDS011;58692;43.212;27.908;2022-12-29T14:57:18;17.35;;;9.48;;
71038;SDS011;58692;43.212;27.908;2022-12-29T14:59:52;26.02;;;9.38;;
71038;SDS011;58692;43.212;27.908;2022-12-29T15:02:22;20.27;;;9.23;;
71038;SDS011;58692;43.212;27.908;2022-12-29T15:04:49;19.48;;;9.90;;
71038;SDS011;58692;43.212;27.908;2022-12-29T15:07:16;23.48;;;9.95;;
71038;SDS011;58692;43.212;27.908;2022-12-29T15:09:45;21.13;;;10.63;;
71038;SDS011;58692;43.212;27.908;2022-12-29T15:12:19;22.77;;;10.73;;
71038;SDS011;58692;43.212;27.908;2022-12-29T15:14:49;23.13;;;11.77;;
71038;SDS011;58692;43.212;27.908;2022-12-29T15:17:23;23.55;;;11.25;;
71038;SDS011;58692;43.212;27.908;2022-12-29T15:19:59;21.50;;;11.40;;
71038;SDS011;58692;43.212;27.908;2022-12-29T15:22:26;23.73;;;11.63;;
71038;SDS011;58692;43.212;27.908;2022-12-29T15:24:53;25.83;;;11.80;;
71038;SDS011;58692;43.212;27.908;2022-12-29T15:27:21;25.47;;;12.17;;
71038;SDS011;58692;43.212;27.908;2022-12-29T15:29:55;26.08;;;12.30;;
71038;SDS011;58692;43.212;27.908;2022-12-29T15:32:22;26.65;;;13.07;;
71038;SDS011;58692;43.212;27.908;2022-12-29T15:34:51;26.55;;;13.30;;
71038;SDS011;58692;43.212;27.908;2022-12-29T15:37:19;25.38;;;14.00;;
71038;SDS011;58692;43.212;27.908;2022-12-29T15:39:48;25.57;;;12.83;;
71038;SDS011;58692;43.212;27.908;2022-12-29T15:45:11;30.35;;;15.60;;
71038;SDS011;58692;43.212;27.908;2022-12-29T15:47:38;33.92;;;15.60;;
71038;SDS011;58692;43.212;27.908;2022-12-29T15:52:39;36.17;;;17.23;;
71038;SDS011;58692;43.212;27.908;2022-12-29T15:55:05;39.95;;;19.63;;
71038;SDS011;58692;43.212;27.908;2022-12-29T15:57:42;37.22;;;18.42;;
71038;SDS011;58692;43.212;27.908;2022-12-29T16:02:50;43.08;;;21.92;;
71038;SDS011;58692;43.212;27.908;2022-12-29T16:05:18;39.83;;;20.67;;
71038;SDS011;58692;43.212;27.908;2022-12-29T16:10:26;43.08;;;23.50;;
71038;SDS011;58692;43.212;27.908;2022-12-29T16:13:01;46.65;;;23.70;;
71038;SDS011;58692;43.212;27.908;2022-12-29T16:15:46;49.87;;;22.97;;
71038;SDS011;58692;43.212;27.908;2022-12-29T16:18:19;47.53;;;23.38;;
71038;SDS011;58692;43.212;27.908;2022-12-29T16:20:49;47.33;;;23.15;;
71038;SDS011;58692;43.212;27.908;2022-12-29T16:23:20;44.53;;;22.05;;
71038;SDS011;58692;43.212;27.908;2022-12-29T16:25:48;45.17;;;22.17;;
71038;SDS011;58692;43.212;27.908;2022-12-29T16:28:16;43.72;;;22.10;;
71038;SDS011;58692;43.212;27.908;2022-12-29T16:30:45;49.50;;;23.33;;
71038;SDS011;58692;43.212;27.908;2022-12-29T16:36:00;54.08;;;25.63;;
71038;SDS011;58692;43.212;27.908;2022-12-29T16:38:31;51.42;;;24.65;;
71038;SDS011;58692;43.212;27.908;2022-12-29T16:40:59;48.78;;;24.65;;
71038;SDS011;58692;43.212;27.908;2022-12-29T16:43:35;52.58;;;26.20;;
71038;SDS011;58692;43.212;27.908;2022-12-29T16:46:15;49.60;;;25.73;;
71038;SDS011;58692;43.212;27.908;2022-12-29T16:48:47;56.47;;;26.08;;
71038;SDS011;58692;43.212;27.908;2022-12-29T16:51:17;50.92;;;24.60;;
71038;SDS011;58692;43.212;27.908;2022-12-29T16:53:49;54.40;;;26.77;;
71038;SDS011;58692;43.212;27.908;2022-12-29T16:56:19;60.90;;;28.63;;
71038;SDS011;58692;43.212;27.908;2022-12-29T16:58:50;59.77;;;28.97;;
71038;SDS011;58692;43.212;27.908;2022-12-29T17:01:21;52.10;;;27.67;;
71038;SDS011;58692;43.212;27.908;2022-12-29T17:03:51;48.05;;;24.85;;
71038;SDS011;58692;43.212;27.908;2022-12-29T17:06:20;48.07;;;25.57;;
71038;SDS011;58692;43.212;27.908;2022-12-29T17:08:47;57.13;;;26.85;;
71038;SDS011;58692;43.212;27.908;2022-12-29T17:14:17;52.35;;;25.55;;
71038;SDS011;58692;43.212;27.908;2022-12-29T17:16:59;57.03;;;24.88;;
71038;SDS011;58692;43.212;27.908;2022-12-29T17:19:28;45.43;;;22.07;;